createdAt,value
2018-09-19T00:01:50.422Z,96849.43
2018-09-19T00:04:20.724Z,96844.09
2018-09-19T00:06:50.450Z,96842.23
2018-09-19T00:09:20.587Z,96845.11
2018-09-19T00:11:50.518Z,96841.09
2018-09-19T00:14:20.563Z,96843.77
2018-09-19T00:16:50.611Z,96847.78
2018-09-19T00:19:20.471Z,96860.05
2018-09-19T00:21:51.669Z,96859.02
2018-09-19T00:24:20.771Z,96861.37
2018-09-19T00:26:50.563Z,96860.85
2018-09-19T00:29:20.547Z,96866.70
2018-09-19T00:31:50.548Z,96857.88
2018-09-19T00:34:20.525Z,96858.13
2018-09-19T00:36:50.592Z,96868.53
2018-09-19T00:39:20.666Z,96859.77
2018-09-19T00:41:50.603Z,96861.88
2018-09-19T00:44:20.588Z,96858.92
2018-09-19T00:46:50.554Z,96859.72
2018-09-19T00:49:20.588Z,96863.47
2018-09-19T00:51:51.006Z,96857.04
2018-09-19T00:54:20.663Z,96864.77
2018-09-19T00:56:50.598Z,96864.78
2018-09-19T00:59:20.577Z,96865.77
2018-09-19T01:01:50.759Z,96861.49
2018-09-19T01:04:20.690Z,96859.07
2018-09-19T01:06:50.814Z,96864.38
2018-09-19T01:09:20.652Z,96859.30
2018-09-19T01:11:50.627Z,96866.48
2018-09-19T01:14:20.677Z,96859.55
2018-09-19T01:16:50.658Z,96865.97
2018-09-19T01:19:20.635Z,96863.78
2018-09-19T01:21:50.688Z,96869.60
2018-09-19T01:24:20.772Z,96877.05
2018-09-19T01:26:50.735Z,96878.94
2018-09-19T01:29:20.709Z,96890.14
2018-09-19T01:31:50.718Z,96881.24
2018-09-19T01:34:20.691Z,96887.19
2018-09-19T01:36:50.703Z,96882.36
2018-09-19T01:39:20.840Z,96882.59
2018-09-19T01:41:50.738Z,96879.67
2018-09-19T01:44:20.824Z,96878.27
2018-09-19T01:46:50.778Z,96877.77
2018-09-19T01:49:20.715Z,96880.44
2018-09-19T01:51:54.522Z,96875.56
2018-09-19T01:54:24.974Z,96882.52
2018-09-19T01:56:54.672Z,96874.57
2018-09-19T01:59:23.841Z,96880.68
2018-09-19T02:01:52.963Z,96885.47
2018-09-19T02:04:22.127Z,96880.87
2018-09-19T02:06:51.304Z,96879.53
2018-09-19T02:09:20.810Z,96883.77
2018-09-19T02:11:50.711Z,96882.20
2018-09-19T02:14:20.753Z,96881.64
2018-09-19T02:16:50.790Z,96882.95
2018-09-19T02:19:20.738Z,96888.55
2018-09-19T02:21:50.973Z,96881.37
2018-09-19T02:24:20.803Z,96882.69
2018-09-19T02:26:50.826Z,96878.13
2018-09-19T02:29:20.756Z,96876.23
2018-09-19T02:31:50.768Z,96878.41
2018-09-19T02:34:21.803Z,96878.41
2018-09-19T02:36:50.955Z,96871.40
2018-09-19T02:39:20.802Z,96880.22
2018-09-19T02:41:50.837Z,96885.48
2018-09-19T02:44:20.843Z,96887.56
2018-09-19T02:46:50.911Z,96892.16
2018-09-19T02:49:20.823Z,96894.59
2018-09-19T02:51:50.949Z,96901.48
2018-09-19T02:54:20.916Z,96892.34
2018-09-19T02:56:50.972Z,96895.80
2018-09-19T02:59:20.843Z,96896.92
2018-09-19T03:01:50.889Z,96903.91
2018-09-19T03:04:20.854Z,96908.34
2018-09-19T03:06:50.886Z,96909.84
2018-09-19T03:09:20.911Z,96910.12
2018-09-19T03:11:50.926Z,96910.15
2018-09-19T03:14:20.909Z,96907.21
2018-09-19T03:19:20.995Z,96908.23
2018-09-19T03:21:50.886Z,96906.10
2018-09-19T03:24:20.937Z,96909.59
2018-09-19T03:26:50.966Z,96906.92
2018-09-19T03:29:20.964Z,96908.63
2018-09-19T03:31:50.950Z,96906.44
2018-09-19T03:34:20.980Z,96906.44
2018-09-19T03:36:51.013Z,96913.67
2018-09-19T03:39:21.048Z,96908.94
2018-09-19T03:41:50.207Z,96912.07
2018-09-19T03:44:19.366Z,96910.77
2018-09-19T03:46:48.507Z,96916.58
2018-09-19T03:49:17.715Z,96912.97
2018-09-19T03:51:46.876Z,96915.20
2018-09-19T03:54:16.015Z,96912.16
2018-09-19T03:56:45.162Z,96911.80
2018-09-19T03:59:14.311Z,96917.56
2018-09-19T04:01:43.556Z,96912.20
2018-09-19T04:04:12.758Z,96916.72
2018-09-19T04:06:41.916Z,96914.63
2018-09-19T04:09:12.991Z,96917.05
2018-09-19T04:11:42.153Z,96912.80
2018-09-19T04:14:12.199Z,96926.16
2018-09-19T04:16:41.808Z,96922.84
2018-09-19T04:19:10.995Z,96930.31
2018-09-19T04:21:43.591Z,96930.78
2018-09-19T04:24:12.804Z,96929.44
2018-09-19T04:26:42.007Z,96928.60
2018-09-19T04:29:11.139Z,96923.48
2018-09-19T04:31:40.795Z,96931.69
2018-09-19T04:34:09.942Z,96933.92
2018-09-19T04:36:39.193Z,96940.53
2018-09-19T04:39:10.536Z,96941.32
2018-09-19T04:41:39.716Z,96939.53
2018-09-19T04:44:09.736Z,96937.41
2018-09-19T04:46:39.975Z,96936.36
2018-09-19T04:49:09.561Z,96937.66
2018-09-19T04:51:39.934Z,96938.69
2018-09-19T04:54:09.303Z,96946.61
2018-09-19T04:56:38.821Z,96947.43
2018-09-19T04:59:08.147Z,96946.03
2018-09-19T05:01:37.318Z,96946.86
2018-09-19T05:04:06.501Z,96945.28
2018-09-19T05:06:35.710Z,96949.28
2018-09-19T05:09:07.465Z,96952.63
2018-09-19T05:11:36.798Z,96949.97
2018-09-19T05:14:06.061Z,96956.42
2018-09-19T05:16:35.217Z,96958.95
2018-09-19T05:19:04.372Z,96959.02
2018-09-19T05:21:33.520Z,96962.64
2018-09-19T05:24:02.668Z,96963.73
2018-09-19T05:26:31.851Z,96967.55
2018-09-19T05:29:01.002Z,96960.92
2018-09-19T05:31:30.654Z,96965.19
2018-09-19T05:33:59.767Z,96973.72
2018-09-19T05:36:28.959Z,96972.47
2018-09-19T05:38:58.287Z,96973.22
2018-09-19T05:41:27.443Z,96976.67
2018-09-19T05:43:56.727Z,96974.89
2018-09-19T05:46:25.992Z,96975.53
2018-09-19T05:48:55.055Z,96973.56
2018-09-19T05:51:24.271Z,96982.70
2018-09-19T05:53:53.399Z,96987.66
2018-09-19T05:56:22.541Z,96993.83
2018-09-19T05:58:51.734Z,96990.08
2018-09-19T06:01:21.402Z,96985.84
2018-09-19T06:03:51.407Z,96989.97
2018-09-19T06:06:21.426Z,96995.09
2018-09-19T06:08:51.587Z,96999.73
2018-09-19T06:11:21.455Z,96988.98
2018-09-19T06:13:51.426Z,96991.69
2018-09-19T06:16:21.483Z,96994.53
2018-09-19T06:18:51.563Z,96995.19
2018-09-19T06:21:21.360Z,96990.16
2018-09-19T06:23:51.503Z,96995.61
2018-09-19T06:26:21.468Z,96994.03
2018-09-19T06:28:51.469Z,96992.78
2018-09-19T06:31:21.749Z,96995.28
2018-09-19T06:33:51.670Z,96993.43
2018-09-19T06:36:21.418Z,96991.68
2018-09-19T06:38:51.440Z,96995.45
2018-09-19T06:41:21.443Z,97005.14
2018-09-19T06:43:51.474Z,97004.39
2018-09-19T06:46:21.550Z,97003.17
2018-09-19T06:48:51.517Z,97012.28
2018-09-19T06:51:21.510Z,97014.75
2018-09-19T06:53:51.538Z,97014.48
2018-09-19T06:56:21.446Z,97014.50
2018-09-19T06:58:51.462Z,97014.89
2018-09-19T07:01:21.498Z,97021.84
2018-09-19T07:03:51.610Z,97028.34
2018-09-19T07:06:21.607Z,97035.12
2018-09-19T07:08:51.571Z,97040.28
2018-09-19T07:11:21.914Z,97036.55
2018-09-19T07:13:51.791Z,97050.23
2018-09-19T07:16:21.804Z,97040.69
2018-09-19T07:18:51.729Z,97042.91
2018-09-19T07:21:21.687Z,97045.42
2018-09-19T07:23:51.579Z,97047.32
2018-09-19T07:26:21.625Z,97052.19
2018-09-19T07:28:51.652Z,97048.23
2018-09-19T07:31:21.746Z,97063.50
2018-09-19T07:33:51.676Z,97057.38
2018-09-19T07:36:21.684Z,97051.07
2018-09-19T07:38:51.656Z,97054.86
2018-09-19T07:41:21.716Z,97055.70
2018-09-19T07:43:51.732Z,97063.27
2018-09-19T07:46:21.599Z,97067.09
2018-09-19T07:48:51.607Z,97067.42
2018-09-19T07:51:21.684Z,97070.94
2018-09-19T07:53:51.663Z,97068.54
2018-09-19T07:56:21.674Z,97065.13
2018-09-19T07:58:51.805Z,97064.88
2018-09-19T08:01:21.757Z,97057.45
2018-09-19T08:03:51.817Z,97067.37
2018-09-19T08:06:22.036Z,97069.27
2018-09-19T08:08:51.694Z,97071.16
2018-09-19T08:11:21.665Z,97068.75
2018-09-19T08:13:51.693Z,97069.02
2018-09-19T08:16:22.055Z,97062.08
2018-09-19T08:18:51.732Z,97064.23
2018-09-19T08:21:21.783Z,97069.05
2018-09-19T08:23:51.716Z,97078.15
2018-09-19T08:26:21.768Z,97075.20
2018-09-19T08:28:51.848Z,97078.94
2018-09-19T08:31:21.691Z,97076.00
2018-09-19T08:33:51.792Z,97077.58
2018-09-19T08:36:21.753Z,97074.31
2018-09-19T08:38:51.835Z,97077.81
2018-09-19T08:41:21.840Z,97075.66
2018-09-19T08:43:51.763Z,97075.58
2018-09-19T08:46:21.792Z,97076.89
2018-09-19T08:48:51.834Z,97065.81
2018-09-19T08:51:21.754Z,97073.27
2018-09-19T08:53:51.760Z,97073.48
2018-09-19T08:56:22.068Z,97069.42
2018-09-19T08:58:51.836Z,97067.25
2018-09-19T09:01:21.759Z,97069.06
2018-09-19T09:03:51.777Z,97067.05
2018-09-19T09:06:21.832Z,97067.14
2018-09-19T09:08:51.843Z,97070.64
2018-09-19T09:11:21.862Z,97064.47
2018-09-19T09:13:51.920Z,97063.64
2018-09-19T09:16:21.798Z,97064.14
2018-09-19T09:18:51.939Z,97064.30
2018-09-19T09:21:21.803Z,97059.62
2018-09-19T09:23:51.850Z,97069.45
2018-09-19T09:26:21.862Z,97064.09
2018-09-19T09:28:51.891Z,97063.06
2018-09-19T09:31:21.836Z,97056.89
2018-09-19T09:33:51.960Z,97063.53
2018-09-19T09:36:21.935Z,97062.94
2018-09-19T09:38:51.850Z,97065.22
2018-09-19T09:41:22.040Z,97060.77
2018-09-19T09:43:51.959Z,97070.98
2018-09-19T09:46:21.919Z,97064.00
2018-09-19T09:48:51.870Z,97067.97
2018-09-19T09:51:22.004Z,97065.98
2018-09-19T09:53:52.017Z,97065.37
2018-09-19T09:56:22.001Z,97062.17
2018-09-19T09:58:52.019Z,97061.89
2018-09-19T10:01:21.902Z,97058.22
2018-09-19T10:03:51.921Z,97061.44
2018-09-19T10:06:21.992Z,97058.02
2018-09-19T10:08:52.047Z,97051.20
2018-09-19T10:11:22.043Z,97052.05
2018-09-19T10:13:52.102Z,97055.91
2018-09-19T10:16:21.947Z,97049.61
2018-09-19T10:18:52.102Z,97049.73
2018-09-19T10:21:22.121Z,97056.03
2018-09-19T10:23:52.082Z,97049.14
2018-09-19T10:26:22.182Z,97047.22
2018-09-19T10:28:52.115Z,97050.63
2018-09-19T10:31:22.032Z,97055.64
2018-09-19T10:33:52.030Z,97054.47
2018-09-19T10:36:22.008Z,97051.63
2018-09-19T10:38:52.144Z,97047.77
2018-09-19T10:41:22.100Z,97051.14
2018-09-19T10:43:52.224Z,97043.97
2018-09-19T10:46:22.032Z,97045.75
2018-09-19T10:48:52.112Z,97044.25
2018-09-19T10:51:22.082Z,97048.16
2018-09-19T10:53:52.084Z,97047.81
2018-09-19T10:56:22.108Z,97045.69
2018-09-19T10:58:52.119Z,97043.91
2018-09-19T11:01:22.068Z,97035.22
2018-09-19T11:03:52.147Z,97036.70
2018-09-19T11:06:22.146Z,97042.02
2018-09-19T11:08:52.231Z,97032.64
2018-09-19T11:11:22.150Z,97033.20
2018-09-19T11:13:52.104Z,97038.84
2018-09-19T11:16:22.287Z,97030.79
2018-09-19T11:18:52.210Z,97031.77
2018-09-19T11:21:22.172Z,97040.48
2018-09-19T11:23:52.159Z,97024.38
2018-09-19T11:26:22.236Z,97028.50
2018-09-19T11:28:52.215Z,97028.55
2018-09-19T11:31:22.222Z,97022.25
2018-09-19T11:33:52.219Z,97022.30
2018-09-19T11:36:22.154Z,97018.67
2018-09-19T11:38:52.166Z,97019.09
2018-09-19T11:41:22.241Z,97015.91
2018-09-19T11:43:52.207Z,97017.10
2018-09-19T11:46:22.295Z,97017.16
2018-09-19T11:48:52.233Z,97014.08
2018-09-19T11:51:22.184Z,97012.20
2018-09-19T11:53:52.283Z,97004.02
2018-09-19T11:56:22.306Z,97002.95
2018-09-19T11:58:52.208Z,97005.92
2018-09-19T12:01:22.204Z,97001.55
2018-09-19T12:03:52.247Z,97005.56
2018-09-19T12:06:22.435Z,96999.79
2018-09-19T12:08:52.248Z,96995.83
2018-09-19T12:11:22.243Z,96991.06
2018-09-19T12:13:52.316Z,96991.55
2018-09-19T12:16:22.348Z,96993.20
2018-09-19T12:18:52.367Z,96993.27
2018-09-19T12:21:22.258Z,96990.97
2018-09-19T12:23:52.278Z,96982.68
2018-09-19T12:26:22.368Z,96988.23
2018-09-19T12:28:52.343Z,96982.07
2018-09-19T12:31:26.185Z,96978.08
2018-09-19T12:33:55.335Z,96984.91
2018-09-19T12:36:55.343Z,96985.63
2018-09-19T12:39:24.488Z,96984.20
2018-09-19T12:41:53.629Z,96991.73
2018-09-19T12:44:22.771Z,96983.12
2018-09-19T12:46:52.428Z,96975.84
2018-09-19T12:49:22.418Z,96972.84
2018-09-19T12:51:52.359Z,96967.43
2018-09-19T12:54:22.405Z,96962.83
2018-09-19T12:56:52.362Z,96971.17
2018-09-19T12:59:22.438Z,96970.09
2018-09-19T13:01:52.501Z,96964.98
2018-09-19T13:04:22.528Z,96966.75
2018-09-19T13:06:52.398Z,96969.52
2018-09-19T13:09:22.410Z,96971.82
2018-09-19T13:11:52.368Z,96965.84
2018-09-19T13:14:22.519Z,96965.30
2018-09-19T13:16:52.423Z,96963.06
2018-09-19T13:19:22.477Z,96967.87
2018-09-19T13:21:52.491Z,96958.94
2018-09-19T13:24:22.496Z,96963.57
2018-09-19T13:26:52.519Z,96960.91
2018-09-19T13:29:22.424Z,96957.48
2018-09-19T13:31:53.119Z,96961.11
2018-09-19T13:34:22.545Z,96956.17
2018-09-19T13:36:52.562Z,96955.93
2018-09-19T13:39:22.459Z,96955.19
2018-09-19T13:41:52.511Z,96953.16
2018-09-19T13:44:22.527Z,96948.83
2018-09-19T13:47:01.527Z,96948.62
2018-09-19T13:49:41.784Z,96940.08
2018-09-19T13:52:10.991Z,96937.37
2018-09-19T13:54:40.122Z,96939.39
2018-09-19T13:57:09.284Z,96942.73
2018-09-19T13:59:38.434Z,96945.85
2018-09-19T14:02:07.621Z,96947.41
2018-09-19T14:04:36.761Z,96942.78
2018-09-19T14:07:06.002Z,96942.98
2018-09-19T14:09:35.155Z,96941.42
2018-09-19T14:12:04.319Z,96942.30
2018-09-19T14:14:33.462Z,96947.03
2018-09-19T14:17:02.660Z,96941.25
2018-09-19T14:19:31.803Z,96944.77
2018-09-19T14:22:01.797Z,96937.33
2018-09-19T14:24:30.954Z,96937.39
2018-09-19T14:27:00.116Z,96941.73
2018-09-19T14:29:29.283Z,96937.94
2018-09-19T14:31:58.477Z,96931.78
2018-09-19T14:34:27.650Z,96930.13
2018-09-19T14:36:56.857Z,96926.98
2018-09-19T14:39:26.035Z,96924.28
2018-09-19T14:41:55.181Z,96922.39
2018-09-19T14:44:24.356Z,96916.67
2018-09-19T14:46:53.528Z,96914.88
2018-09-19T14:49:22.779Z,96912.35
2018-09-19T14:51:52.716Z,96920.05
2018-09-19T14:54:22.867Z,96911.30
2018-09-19T14:56:52.740Z,96910.22
2018-09-19T14:59:23.000Z,96910.16
2018-09-19T15:01:53.310Z,96909.71
2018-09-19T15:04:22.835Z,96909.23
2018-09-19T15:06:53.150Z,96907.45
2018-09-19T15:09:23.327Z,96906.59
2018-09-19T15:11:52.828Z,96903.28
2018-09-19T15:14:22.868Z,96908.62
2018-09-19T15:16:52.859Z,96896.05
2018-09-19T15:19:22.783Z,96906.08
2018-09-19T15:21:52.944Z,96898.20
2018-09-19T15:24:22.950Z,96900.06
2018-09-19T15:26:59.303Z,96896.65
2018-09-19T15:29:32.734Z,96900.05
2018-09-19T15:32:01.939Z,96898.73
2018-09-19T15:34:31.138Z,96903.16
2018-09-19T15:37:00.296Z,96904.39
2018-09-19T15:39:29.434Z,96900.58
2018-09-19T15:41:58.627Z,96905.05
2018-09-19T15:44:27.841Z,96895.72
2018-09-19T15:46:57.067Z,96901.91
2018-09-19T15:49:26.307Z,96898.52
2018-09-19T15:51:55.443Z,96899.95
2018-09-19T15:54:24.607Z,96901.42
2018-09-19T15:56:54.579Z,96905.25
2018-09-19T15:59:24.640Z,96908.11
2018-09-19T16:01:55.131Z,96903.39
2018-09-19T16:04:25.303Z,96906.75
2018-09-19T16:06:54.510Z,96915.02
2018-09-19T16:09:24.559Z,96914.02
2018-09-19T16:11:54.818Z,96913.91
2018-09-19T16:14:24.675Z,96921.06
2018-09-19T16:16:54.631Z,96917.95
2018-09-19T16:19:24.619Z,96917.01
2018-09-19T16:21:54.543Z,96924.39
2018-09-19T16:24:24.559Z,96923.15
2018-09-19T16:26:54.587Z,96926.97
2018-09-19T16:29:24.619Z,96916.83
2018-09-19T16:31:54.599Z,96919.05
2018-09-19T16:34:24.647Z,96917.23
2018-09-19T16:36:54.639Z,96918.63
2018-09-19T16:39:24.681Z,96924.31
2018-09-19T16:41:54.751Z,96928.69
2018-09-19T16:44:25.441Z,96930.63
2018-09-19T16:46:54.838Z,96928.52
2018-09-19T16:49:24.767Z,96926.64
2018-09-19T16:51:54.740Z,96927.30
2018-09-19T16:54:24.842Z,96934.63
2018-09-19T16:56:54.713Z,96931.70
2018-09-19T16:59:24.703Z,96933.09
2018-09-19T17:01:54.778Z,96932.61
2018-09-19T17:04:24.894Z,96930.50
2018-09-19T17:06:54.858Z,96934.30
2018-09-19T17:09:24.922Z,96934.34
2018-09-19T17:11:54.865Z,96937.37
2018-09-19T17:14:24.767Z,96940.40
2018-09-19T17:16:54.776Z,96935.84
2018-09-19T17:19:24.729Z,96937.23
2018-09-19T17:21:54.748Z,96938.63
2018-09-19T17:24:24.851Z,96934.11
2018-09-19T17:26:54.835Z,96938.48
2018-09-19T17:29:24.767Z,96946.08
2018-09-19T17:31:54.747Z,96948.08
2018-09-19T17:34:24.903Z,96951.11
2018-09-19T17:36:54.927Z,96949.35
2018-09-19T17:39:24.872Z,96954.58
2018-09-19T17:41:54.802Z,96952.53
2018-09-19T17:44:24.963Z,96955.55
2018-09-19T17:46:54.852Z,96953.22
2018-09-19T17:49:24.895Z,96958.15
2018-09-19T17:51:54.983Z,96957.12
2018-09-19T17:54:24.882Z,96956.95
2018-09-19T17:56:54.887Z,96961.69
2018-09-19T17:59:24.971Z,96966.31
2018-09-19T18:01:55.083Z,96960.75
2018-09-19T18:04:24.922Z,96966.22
2018-09-19T18:06:54.980Z,96966.00
2018-09-19T18:09:24.219Z,96971.44
2018-09-19T18:11:53.403Z,96966.93
2018-09-19T18:14:22.690Z,96968.33
2018-09-19T18:16:51.847Z,96976.17
2018-09-19T18:19:21.120Z,96973.86
2018-09-19T18:21:50.378Z,96975.23
2018-09-19T18:24:19.519Z,96966.71
2018-09-19T18:26:48.675Z,96976.39
2018-09-19T18:29:17.814Z,96974.55
2018-09-19T18:31:46.978Z,96978.86
2018-09-19T18:34:16.118Z,96975.41
2018-09-19T18:36:45.278Z,96976.77
2018-09-19T18:39:14.487Z,96976.52
2018-09-19T18:41:43.641Z,96979.23
2018-09-19T18:44:12.776Z,96981.40
2018-09-19T18:46:42.290Z,96986.81
2018-09-19T18:49:11.423Z,96985.80
2018-09-19T18:51:40.659Z,96990.91
2018-09-19T18:54:09.796Z,96985.08
2018-09-19T18:56:38.937Z,96985.09
2018-09-19T18:59:08.070Z,96986.98
2018-09-19T19:01:37.224Z,96988.33
2018-09-19T19:04:06.495Z,96988.36
2018-09-19T19:06:35.701Z,96988.11
2018-09-19T19:09:06.224Z,96989.48
2018-09-19T19:11:35.362Z,96993.23
2018-09-19T19:14:04.902Z,96992.97
2018-09-19T19:16:34.049Z,96992.19
2018-09-19T19:19:03.233Z,96998.11
2018-09-19T19:21:32.602Z,96996.53
2018-09-19T19:24:01.890Z,96998.96
2018-09-19T19:26:31.094Z,96999.52
2018-09-19T19:29:00.230Z,97003.84
2018-09-19T19:31:29.631Z,97003.30
2018-09-19T19:33:58.786Z,97004.39
2018-09-19T19:36:28.003Z,97004.11
2018-09-19T19:38:57.158Z,97007.89
2018-09-19T19:41:26.335Z,97001.20
2018-09-19T19:43:56.117Z,97004.95
2018-09-19T19:46:26.087Z,96997.45
2018-09-19T19:48:56.130Z,97000.95
2018-09-19T19:51:26.167Z,96996.94
2018-09-19T19:53:56.202Z,97001.76
2018-09-19T19:56:26.146Z,97000.95
2018-09-19T19:58:56.088Z,97001.48
2018-09-19T20:01:26.087Z,97005.25
2018-09-19T20:03:56.187Z,97006.61
2018-09-19T20:06:26.274Z,97008.19
2018-09-19T20:08:56.262Z,97010.33
2018-09-19T20:11:26.203Z,97008.74
2018-09-19T20:13:56.215Z,97015.16
2018-09-19T20:16:26.278Z,97011.13
2018-09-19T20:18:56.200Z,97013.81
2018-09-19T20:21:26.210Z,97012.50
2018-09-19T20:23:56.281Z,97007.40
2018-09-19T20:26:26.295Z,97006.33
2018-09-19T20:28:56.267Z,97004.73
2018-09-19T20:31:26.520Z,97008.75
2018-09-19T20:33:56.265Z,97007.95
2018-09-19T20:36:26.356Z,97002.83
2018-09-19T20:38:56.303Z,97006.06
2018-09-19T20:41:26.329Z,97006.59
2018-09-19T20:43:56.251Z,97006.30
2018-09-19T20:46:26.575Z,97007.12
2018-09-19T20:48:56.302Z,97006.30
2018-09-19T20:51:26.323Z,97015.16
2018-09-19T20:53:56.327Z,97015.13
2018-09-19T20:56:26.331Z,97017.28
2018-09-19T20:58:56.257Z,97012.94
2018-09-19T21:01:26.459Z,97016.47
2018-09-19T21:03:56.295Z,97008.92
2018-09-19T21:06:26.319Z,97011.34
2018-09-19T21:08:56.439Z,97015.62
2018-09-19T21:11:26.382Z,97016.70
2018-09-19T21:13:56.510Z,97021.49
2018-09-19T21:16:26.391Z,97017.73
2018-09-19T21:18:56.434Z,97019.89
2018-09-19T21:21:26.368Z,97019.38
2018-09-19T21:23:56.344Z,97026.84
2018-09-19T21:26:26.360Z,97027.11
2018-09-19T21:28:56.386Z,97028.17
2018-09-19T21:31:26.431Z,97027.88
2018-09-19T21:33:56.518Z,97033.23
2018-09-19T21:36:26.398Z,97029.77
2018-09-19T21:38:56.447Z,97036.94
2018-09-19T21:41:26.456Z,97038.27
2018-09-19T21:43:56.475Z,97032.14
2018-09-19T21:46:26.411Z,97029.45
2018-09-19T21:48:56.457Z,97038.00
2018-09-19T21:51:26.415Z,97034.50
2018-09-19T21:53:56.399Z,97032.38
2018-09-19T21:56:26.503Z,97035.31
2018-09-19T21:58:56.433Z,97038.20
2018-09-19T22:01:51.784Z,97037.66
2018-09-19T22:04:20.925Z,97038.16
2018-09-19T22:06:50.079Z,97041.86
2018-09-19T22:09:19.238Z,97033.53
2018-09-19T22:11:49.039Z,97032.20
2018-09-19T22:14:20.766Z,97033.77
2018-09-19T22:16:50.050Z,97027.09
2018-09-19T22:19:19.280Z,97027.09
2018-09-19T22:21:48.534Z,97022.25
2018-09-19T22:24:17.691Z,97026.50
2018-09-19T22:26:46.834Z,97027.86
2018-09-19T22:29:15.967Z,97027.09
2018-09-19T22:31:45.166Z,97023.83
2018-09-19T22:34:14.344Z,97028.13
2018-09-19T22:36:43.483Z,97020.66
2018-09-19T22:39:12.644Z,97022.77
2018-09-19T22:41:41.779Z,97025.70
2018-09-19T22:44:10.934Z,97022.48
2018-09-19T22:46:40.083Z,97023.51
2018-09-19T22:49:09.243Z,97025.15
2018-09-19T22:51:38.545Z,97020.30
2018-09-19T22:54:07.719Z,97021.34
2018-09-19T22:56:36.867Z,97013.89
2018-09-19T22:59:06.364Z,97023.50
2018-09-19T23:01:35.547Z,97018.67
2018-09-19T23:04:04.731Z,97018.41
2018-09-19T23:06:33.892Z,97017.82
2018-09-19T23:09:03.111Z,97016.22
2018-09-19T23:11:32.259Z,97017.56
2018-09-19T23:14:01.415Z,97021.56
2018-09-19T23:16:30.804Z,97020.48
2018-09-19T23:19:00.159Z,97021.87
2018-09-19T23:21:29.268Z,97018.38
2018-09-19T23:23:58.426Z,97023.17
2018-09-19T23:26:27.591Z,97018.06
2018-09-19T23:28:56.747Z,97015.94
2018-09-19T23:31:26.751Z,97015.86
2018-09-19T23:33:56.743Z,97019.35
2018-09-19T23:36:26.723Z,97012.66
2018-09-19T23:38:56.757Z,97011.87
2018-09-19T23:41:26.652Z,97015.92
2018-09-19T23:43:56.699Z,97013.53
2018-09-19T23:46:26.704Z,97012.94
2018-09-19T23:48:56.675Z,97011.84
2018-09-19T23:51:26.711Z,97017.41
2018-09-19T23:53:56.755Z,97020.07
2018-09-19T23:56:26.823Z,97013.37
2018-09-19T23:58:56.778Z,97013.06
